sensor_id;sensor_type;location;lat;lon;timestamp;pressure;altitude;pressure_sealevel;temperature;humidity
36502;BME280;25393;46.108;3.390;2022-10-24T00:00:45;97565.19;;;17.43;89.22
36502;BME280;25393;46.108;3.390;2022-10-24T00:03:12;97574.03;;;17.44;89.36
36502;BME280;25393;46.108;3.390;2022-10-24T00:05:46;97539.13;;;17.14;90.81
36502;BME280;25393;46.108;3.390;2022-10-24T00:08:14;97566.06;;;17.19;91.52
36502;BME280;25393;46.108;3.390;2022-10-24T00:10:46;97565.31;;;17.12;91.25
36502;BME280;25393;46.108;3.390;2022-10-24T00:13:15;97553.38;;;16.90;92.60
36502;BME280;25393;46.108;3.390;2022-10-24T00:15:46;97558.72;;;16.90;93.44
36502;BME280;25393;46.108;3.390;2022-10-24T00:18:13;97533.47;;;16.55;94.64
36502;BME280;25393;46.108;3.390;2022-10-24T00:20:41;97537.22;;;16.54;95.00
36502;BME280;25393;46.108;3.390;2022-10-24T00:23:07;97546.75;;;16.68;94.62
36502;BME280;25393;46.108;3.390;2022-10-24T00:25:38;97542.47;;;16.67;94.96
36502;BME280;25393;46.108;3.390;2022-10-24T00:28:08;97516.19;;;16.57;93.82
36502;BME280;25393;46.108;3.390;2022-10-24T00:30:34;97556.63;;;16.74;94.68
36502;BME280;25393;46.108;3.390;2022-10-24T00:33:03;97552.34;;;16.66;95.42
36502;BME280;25393;46.108;3.390;2022-10-24T00:35:33;97526.38;;;16.42;95.43
36502;BME280;25393;46.108;3.390;2022-10-24T00:38:00;97543.19;;;16.56;95.47
36502;BME280;25393;46.108;3.390;2022-10-24T00:40:26;97541.72;;;16.53;95.27
36502;BME280;25393;46.108;3.390;2022-10-24T00:42:53;97542.97;;;16.50;95.59
36502;BME280;25393;46.108;3.390;2022-10-24T00:45:36;97579.63;;;16.75;94.73
36502;BME280;25393;46.108;3.390;2022-10-24T00:48:13;97575.41;;;16.67;95.60
36502;BME280;25393;46.108;3.390;2022-10-24T00:50:41;97571.03;;;16.73;95.58
36502;BME280;25393;46.108;3.390;2022-10-24T00:53:08;97562.03;;;16.67;95.08
36502;BME280;25393;46.108;3.390;2022-10-24T00:55:36;97527.47;;;16.34;96.15
36502;BME280;25393;46.108;3.390;2022-10-24T00:58:05;97555.97;;;16.47;96.65
36502;BME280;25393;46.108;3.390;2022-10-24T01:00:34;97575.06;;;16.50;96.72
36502;BME280;25393;46.108;3.390;2022-10-24T01:03:01;97575.31;;;16.49;96.92
36502;BME280;25393;46.108;3.390;2022-10-24T01:05:34;97578.56;;;16.51;96.96
36502;BME280;25393;46.108;3.390;2022-10-24T01:08:28;97566.13;;;16.38;98.64
36502;BME280;25393;46.108;3.390;2022-10-24T01:22:02;97569.06;;;16.55;97.25
36502;BME280;25393;46.108;3.390;2022-10-24T01:27:56;97568.34;;;16.73;94.85
36502;BME280;25393;46.108;3.390;2022-10-24T01:30:27;97564.44;;;16.93;94.10
36502;BME280;25393;46.108;3.390;2022-10-24T01:33:00;97570.25;;;16.90;94.36
36502;BME280;25393;46.108;3.390;2022-10-24T01:38:04;97581.47;;;16.81;93.18
36502;BME280;25393;46.108;3.390;2022-10-24T01:43:13;97570.19;;;16.72;93.32
36502;BME280;25393;46.108;3.390;2022-10-24T01:45:45;97561.19;;;16.67;93.84
36502;BME280;25393;46.108;3.390;2022-10-24T01:48:14;97584.78;;;16.76;93.04
36502;BME280;25393;46.108;3.390;2022-10-24T01:50:44;97562.44;;;16.64;92.55
36502;BME280;25393;46.108;3.390;2022-10-24T01:53:13;97545.84;;;16.56;93.51
36502;BME280;25393;46.108;3.390;2022-10-24T01:55:41;97577.13;;;16.80;93.83
36502;BME280;25393;46.108;3.390;2022-10-24T01:58:08;97573.38;;;16.63;95.33
36502;BME280;25393;46.108;3.390;2022-10-24T02:00:34;97569.50;;;16.83;94.82
36502;BME280;25393;46.108;3.390;2022-10-24T02:03:15;97573.03;;;17.02;94.39
36502;BME280;25393;46.108;3.390;2022-10-24T02:05:49;97569.59;;;16.95;92.66
36502;BME280;25393;46.108;3.390;2022-10-24T02:08:22;97570.44;;;16.71;94.30
36502;BME280;25393;46.108;3.390;2022-10-24T02:10:53;97580.06;;;16.72;95.94
36502;BME280;25393;46.108;3.390;2022-10-24T02:13:29;97576.75;;;16.76;96.53
36502;BME280;25393;46.108;3.390;2022-10-24T02:16:01;97585.66;;;16.95;96.51
36502;BME280;25393;46.108;3.390;2022-10-24T02:18:32;97579.31;;;16.89;96.73
36502;BME280;25393;46.108;3.390;2022-10-24T02:21:23;97577.19;;;16.98;96.17
36502;BME280;25393;46.108;3.390;2022-10-24T02:26:44;97556.16;;;17.02;96.52
36502;BME280;25393;46.108;3.390;2022-10-24T02:29:24;97560.69;;;17.01;95.90
36502;BME280;25393;46.108;3.390;2022-10-24T02:31:55;97560.94;;;16.93;96.12
36502;BME280;25393;46.108;3.390;2022-10-24T02:34:28;97555.91;;;17.03;95.93
36502;BME280;25393;46.108;3.390;2022-10-24T02:36:58;97578.09;;;17.10;95.76
36502;BME280;25393;46.108;3.390;2022-10-24T02:39:25;97571.56;;;17.06;96.24
36502;BME280;25393;46.108;3.390;2022-10-24T02:41:54;97560.94;;;16.93;97.25
36502;BME280;25393;46.108;3.390;2022-10-24T02:44:23;97554.47;;;16.82;97.50
36502;BME280;25393;46.108;3.390;2022-10-24T02:46:53;97549.63;;;16.73;97.19
36502;BME280;25393;46.108;3.390;2022-10-24T02:49:22;97548.16;;;16.77;97.80
36502;BME280;25393;46.108;3.390;2022-10-24T02:51:54;97542.94;;;16.82;97.26
36502;BME280;25393;46.108;3.390;2022-10-24T02:54:21;97561.09;;;16.80;98.00
36502;BME280;25393;46.108;3.390;2022-10-24T02:56:57;97563.59;;;16.75;100.00
36502;BME280;25393;46.108;3.390;2022-10-24T02:59:25;97559.38;;;16.85;98.94
36502;BME280;25393;46.108;3.390;2022-10-24T03:01:52;97537.00;;;16.80;97.79
36502;BME280;25393;46.108;3.390;2022-10-24T03:04:18;97568.34;;;16.97;97.97
36502;BME280;25393;46.108;3.390;2022-10-24T03:06:45;97558.91;;;16.95;97.57
36502;BME280;25393;46.108;3.390;2022-10-24T03:09:12;97554.03;;;16.85;97.96
36502;BME280;25393;46.108;3.390;2022-10-24T03:11:41;97552.03;;;16.81;96.30
36502;BME280;25393;46.108;3.390;2022-10-24T03:14:08;97536.06;;;16.68;96.24
36502;BME280;25393;46.108;3.390;2022-10-24T03:16:34;97574.91;;;16.77;98.47
36502;BME280;25393;46.108;3.390;2022-10-24T03:19:01;97565.78;;;16.84;97.95
36502;BME280;25393;46.108;3.390;2022-10-24T03:21:28;97579.69;;;16.93;97.54
36502;BME280;25393;46.108;3.390;2022-10-24T03:23:54;97575.56;;;17.15;94.70
36502;BME280;25393;46.108;3.390;2022-10-24T03:26:21;97577.31;;;17.03;95.14
36502;BME280;25393;46.108;3.390;2022-10-24T03:28:48;97550.97;;;16.82;96.79
36502;BME280;25393;46.108;3.390;2022-10-24T03:31:17;97561.34;;;16.72;98.21
36502;BME280;25393;46.108;3.390;2022-10-24T03:33:47;97551.53;;;16.66;98.16
36502;BME280;25393;46.108;3.390;2022-10-24T03:36:13;97560.66;;;16.52;98.86
36502;BME280;25393;46.108;3.390;2022-10-24T03:38:42;97561.97;;;16.42;99.42
36502;BME280;25393;46.108;3.390;2022-10-24T03:41:09;97577.75;;;16.50;100.00
36502;BME280;25393;46.108;3.390;2022-10-24T03:43:36;97578.63;;;16.44;100.00
36502;BME280;25393;46.108;3.390;2022-10-24T03:46:02;97554.16;;;16.10;100.00
36502;BME280;25393;46.108;3.390;2022-10-24T03:48:29;97566.28;;;16.12;100.00
36502;BME280;25393;46.108;3.390;2022-10-24T03:50:55;97577.41;;;16.09;100.00
36502;BME280;25393;46.108;3.390;2022-10-24T03:53:22;97583.00;;;16.01;100.00
36502;BME280;25393;46.108;3.390;2022-10-24T03:55:49;97584.00;;;16.07;100.00
36502;BME280;25393;46.108;3.390;2022-10-24T03:58:19;97590.19;;;16.07;100.00
36502;BME280;25393;46.108;3.390;2022-10-24T04:00:45;97581.94;;;16.09;100.00
36502;BME280;25393;46.108;3.390;2022-10-24T04:03:14;97605.03;;;16.34;100.00
36502;BME280;25393;46.108;3.390;2022-10-24T04:05:43;97591.06;;;16.32;100.00
36502;BME280;25393;46.108;3.390;2022-10-24T04:08:10;97597.38;;;16.38;100.00
36502;BME280;25393;46.108;3.390;2022-10-24T04:10:36;97587.50;;;16.38;100.00
36502;BME280;25393;46.108;3.390;2022-10-24T04:13:03;97592.88;;;16.38;100.00
36502;BME280;25393;46.108;3.390;2022-10-24T04:15:30;97618.03;;;16.24;100.00
36502;BME280;25393;46.108;3.390;2022-10-24T04:17:56;97592.47;;;16.04;100.00
36502;BME280;25393;46.108;3.390;2022-10-24T04:20:23;97613.22;;;16.02;100.00
36502;BME280;25393;46.108;3.390;2022-10-24T04:22:50;97619.69;;;16.25;100.00
36502;BME280;25393;46.108;3.390;2022-10-24T04:25:17;97605.16;;;16.15;100.00
36502;BME280;25393;46.108;3.390;2022-10-24T04:27:44;97625.19;;;16.30;100.00
36502;BME280;25393;46.108;3.390;2022-10-24T04:30:12;97626.88;;;16.25;100.00
36502;BME280;25393;46.108;3.390;2022-10-24T04:32:43;97634.69;;;16.26;100.00
36502;BME280;25393;46.108;3.390;2022-10-24T04:35:10;97634.25;;;16.29;100.00
36502;BME280;25393;46.108;3.390;2022-10-24T04:37:36;97624.44;;;16.55;100.00
36502;BME280;25393;46.108;3.390;2022-10-24T04:40:04;97633.75;;;16.45;100.00
36502;BME280;25393;46.108;3.390;2022-10-24T04:42:30;97625.25;;;16.24;100.00
36502;BME280;25393;46.108;3.390;2022-10-24T04:44:57;97632.28;;;16.18;100.00
36502;BME280;25393;46.108;3.390;2022-10-24T04:47:23;97602.38;;;15.96;100.00
36502;BME280;25393;46.108;3.390;2022-10-24T04:49:50;97613.88;;;15.97;100.00
36502;BME280;25393;46.108;3.390;2022-10-24T04:52:17;97625.78;;;15.94;100.00
36502;BME280;25393;46.108;3.390;2022-10-24T04:54:43;97650.66;;;15.95;100.00
36502;BME280;25393;46.108;3.390;2022-10-24T04:57:10;97646.75;;;15.97;100.00
36502;BME280;25393;46.108;3.390;2022-10-24T04:59:37;97646.88;;;16.16;100.00
36502;BME280;25393;46.108;3.390;2022-10-24T05:02:03;97632.91;;;16.14;100.00
36502;BME280;25393;46.108;3.390;2022-10-24T05:04:30;97644.06;;;16.04;99.42
36502;BME280;25393;46.108;3.390;2022-10-24T05:06:56;97639.13;;;16.08;98.73
36502;BME280;25393;46.108;3.390;2022-10-24T05:09:23;97622.47;;;16.06;97.80
36502;BME280;25393;46.108;3.390;2022-10-24T05:11:54;97652.69;;;16.06;99.56
36502;BME280;25393;46.108;3.390;2022-10-24T05:14:22;97608.94;;;16.01;96.47
36502;BME280;25393;46.108;3.390;2022-10-24T05:16:49;97641.13;;;16.12;95.35
36502;BME280;25393;46.108;3.390;2022-10-24T05:19:18;97635.66;;;16.01;97.10
36502;BME280;25393;46.108;3.390;2022-10-24T05:21:45;97651.09;;;15.92;97.38
36502;BME280;25393;46.108;3.390;2022-10-24T05:24:12;97654.41;;;15.81;97.55
36502;BME280;25393;46.108;3.390;2022-10-24T05:26:39;97648.66;;;15.84;97.82
36502;BME280;25393;46.108;3.390;2022-10-24T05:29:05;97645.34;;;15.88;97.53
36502;BME280;25393;46.108;3.390;2022-10-24T05:31:33;97659.44;;;16.09;96.08
36502;BME280;25393;46.108;3.390;2022-10-24T05:34:00;97643.31;;;15.84;95.22
36502;BME280;25393;46.108;3.390;2022-10-24T05:36:26;97661.75;;;15.98;92.78
36502;BME280;25393;46.108;3.390;2022-10-24T05:38:53;97639.41;;;15.80;93.13
36502;BME280;25393;46.108;3.390;2022-10-24T05:41:19;97665.88;;;15.94;91.18
36502;BME280;25393;46.108;3.390;2022-10-24T05:43:46;97664.03;;;15.95;90.44
36502;BME280;25393;46.108;3.390;2022-10-24T05:46:13;97665.72;;;15.89;90.29
36502;BME280;25393;46.108;3.390;2022-10-24T05:48:39;97660.34;;;15.96;90.20
36502;BME280;25393;46.108;3.390;2022-10-24T05:51:06;97646.22;;;15.82;89.28
36502;BME280;25393;46.108;3.390;2022-10-24T05:53:32;97618.94;;;15.61;89.14
36502;BME280;25393;46.108;3.390;2022-10-24T05:55:59;97649.94;;;15.68;87.54
36502;BME280;25393;46.108;3.390;2022-10-24T05:58:26;97649.31;;;15.79;87.48
36502;BME280;25393;46.108;3.390;2022-10-24T06:00:56;97656.13;;;15.62;88.61
36502;BME280;25393;46.108;3.390;2022-10-24T06:03:22;97664.94;;;15.63;87.08
36502;BME280;25393;46.108;3.390;2022-10-24T06:05:56;97648.34;;;15.47;85.00
36502;BME280;25393;46.108;3.390;2022-10-24T06:08:23;97672.34;;;15.67;83.47
36502;BME280;25393;46.108;3.390;2022-10-24T06:10:56;97667.72;;;15.94;80.96
36502;BME280;25393;46.108;3.390;2022-10-24T06:13:23;97643.97;;;15.66;82.06
36502;BME280;25393;46.108;3.390;2022-10-24T06:15:57;97656.09;;;15.75;81.82
36502;BME280;25393;46.108;3.390;2022-10-24T06:18:27;97653.81;;;15.79;81.79
36502;BME280;25393;46.108;3.390;2022-10-24T06:21:02;97689.50;;;15.97;80.73
36502;BME280;25393;46.108;3.390;2022-10-24T06:23:30;97653.41;;;15.82;78.94
36502;BME280;25393;46.108;3.390;2022-10-24T06:25:57;97697.13;;;15.94;80.99
36502;BME280;25393;46.108;3.390;2022-10-24T06:28:27;97683.00;;;15.74;82.44
36502;BME280;25393;46.108;3.390;2022-10-24T06:30:53;97690.16;;;15.93;79.02
36502;BME280;25393;46.108;3.390;2022-10-24T06:33:28;97712.56;;;15.92;79.68
36502;BME280;25393;46.108;3.390;2022-10-24T06:36:01;97713.41;;;15.86;80.34
36502;BME280;25393;46.108;3.390;2022-10-24T06:38:31;97705.59;;;15.84;79.87
36502;BME280;25393;46.108;3.390;2022-10-24T06:40:58;97708.09;;;15.79;80.03
36502;BME280;25393;46.108;3.390;2022-10-24T06:43:28;97706.47;;;15.72;79.41
36502;BME280;25393;46.108;3.390;2022-10-24T06:45:57;97701.06;;;15.91;76.22
36502;BME280;25393;46.108;3.390;2022-10-24T06:48:24;97705.16;;;15.94;76.40
36502;BME280;25393;46.108;3.390;2022-10-24T06:50:57;97705.56;;;16.04;76.26
36502;BME280;25393;46.108;3.390;2022-10-24T06:53:24;97703.25;;;16.14;76.16
36502;BME280;25393;46.108;3.390;2022-10-24T06:55:58;97716.78;;;16.19;76.40
36502;BME280;25393;46.108;3.390;2022-10-24T06:58:36;97679.50;;;15.80;77.04
36502;BME280;25393;46.108;3.390;2022-10-24T07:01:17;97691.22;;;15.85;76.27
36502;BME280;25393;46.108;3.390;2022-10-24T07:03:46;97722.38;;;16.05;75.41
36502;BME280;25393;46.108;3.390;2022-10-24T07:06:21;97722.97;;;16.13;74.05
36502;BME280;25393;46.108;3.390;2022-10-24T07:08:51;97711.91;;;16.03;74.20
36502;BME280;25393;46.108;3.390;2022-10-24T07:11:19;97738.66;;;16.03;75.68
36502;BME280;25393;46.108;3.390;2022-10-24T07:13:46;97733.69;;;16.07;75.58
36502;BME280;25393;46.108;3.390;2022-10-24T07:16:14;97742.53;;;16.07;75.39
36502;BME280;25393;46.108;3.390;2022-10-24T07:18:42;97734.28;;;16.15;74.27
36502;BME280;25393;46.108;3.390;2022-10-24T07:21:13;97737.69;;;16.42;73.49
36502;BME280;25393;46.108;3.390;2022-10-24T07:23:40;97746.47;;;16.93;71.79
36502;BME280;25393;46.108;3.390;2022-10-24T07:26:10;97749.56;;;17.46;68.68
36502;BME280;25393;46.108;3.390;2022-10-24T07:28:38;97745.00;;;17.78;66.69
36502;BME280;25393;46.108;3.390;2022-10-24T07:31:06;97745.66;;;17.92;65.18
36502;BME280;25393;46.108;3.390;2022-10-24T07:33:35;97752.63;;;18.36;63.89
36502;BME280;25393;46.108;3.390;2022-10-24T07:36:02;97756.50;;;18.88;61.95
36502;BME280;25393;46.108;3.390;2022-10-24T07:38:29;97735.03;;;18.88;59.98
36502;BME280;25393;46.108;3.390;2022-10-24T07:41:02;97742.88;;;19.01;60.32
36502;BME280;25393;46.108;3.390;2022-10-24T07:43:28;97744.72;;;19.30;59.94
36502;BME280;25393;46.108;3.390;2022-10-24T07:45:55;97744.66;;;19.49;59.39
36502;BME280;25393;46.108;3.390;2022-10-24T07:48:23;97745.88;;;19.34;59.93
36502;BME280;25393;46.108;3.390;2022-10-24T07:50:49;97753.88;;;19.41;60.67
36502;BME280;25393;46.108;3.390;2022-10-24T07:53:16;97757.47;;;19.35;60.07
36502;BME280;25393;46.108;3.390;2022-10-24T07:55:43;97757.38;;;19.41;59.10
36502;BME280;25393;46.108;3.390;2022-10-24T07:58:10;97760.19;;;19.81;59.29
36502;BME280;25393;46.108;3.390;2022-10-24T08:00:37;97756.31;;;20.24;58.10
36502;BME280;25393;46.108;3.390;2022-10-24T08:03:10;97763.28;;;20.60;56.79
36502;BME280;25393;46.108;3.390;2022-10-24T08:05:39;97754.41;;;20.76;55.80
36502;BME280;25393;46.108;3.390;2022-10-24T08:08:06;97761.13;;;21.02;55.63
36502;BME280;25393;46.108;3.390;2022-10-24T08:11:00;97766.75;;;21.62;55.04
36502;BME280;25393;46.108;3.390;2022-10-24T08:13:31;97761.13;;;21.47;54.02
36502;BME280;25393;46.108;3.390;2022-10-24T08:15:58;97764.00;;;21.73;53.88
36502;BME280;25393;46.108;3.390;2022-10-24T08:18:27;97761.53;;;21.38;51.08
36502;BME280;25393;46.108;3.390;2022-10-24T08:21:01;97763.31;;;22.00;50.06
36502;BME280;25393;46.108;3.390;2022-10-24T08:23:28;97760.47;;;22.28;49.50
36502;BME280;25393;46.108;3.390;2022-10-24T08:25:54;97765.47;;;22.79;49.50
36502;BME280;25393;46.108;3.390;2022-10-24T08:28:23;97752.78;;;22.36;49.17
36502;BME280;25393;46.108;3.390;2022-10-24T08:31:06;97754.72;;;21.86;49.80
36502;BME280;25393;46.108;3.390;2022-10-24T08:33:35;97732.53;;;21.01;50.78
36502;BME280;25393;46.108;3.390;2022-10-24T08:36:05;97772.19;;;21.17;53.10
36502;BME280;25393;46.108;3.390;2022-10-24T08:38:32;97771.47;;;20.93;54.38
36502;BME280;25393;46.108;3.390;2022-10-24T08:40:59;97771.81;;;20.68;53.90
36502;BME280;25393;46.108;3.390;2022-10-24T08:43:31;97741.47;;;20.21;55.27
36502;BME280;25393;46.108;3.390;2022-10-24T08:48:48;97734.69;;;20.19;55.39
36502;BME280;25393;46.108;3.390;2022-10-24T08:54:34;97767.28;;;20.85;55.16
36502;BME280;25393;46.108;3.390;2022-10-24T08:57:03;97739.59;;;21.18;54.14
36502;BME280;25393;46.108;3.390;2022-10-24T08:59:33;97777.88;;;21.65;53.60
36502;BME280;25393;46.108;3.390;2022-10-24T09:02:11;97746.53;;;22.14;52.17
36502;BME280;25393;46.108;3.390;2022-10-24T09:04:48;97770.06;;;22.79;50.74
36502;BME280;25393;46.108;3.390;2022-10-24T09:07:18;97765.91;;;22.71;51.58
36502;BME280;25393;46.108;3.390;2022-10-24T09:09:48;97772.50;;;22.59;50.89
36502;BME280;25393;46.108;3.390;2022-10-24T09:12:18;97759.38;;;22.67;50.30
36502;BME280;25393;46.108;3.390;2022-10-24T09:14:50;97764.44;;;23.07;50.68
36502;BME280;25393;46.108;3.390;2022-10-24T09:17:28;97772.41;;;23.82;47.30
36502;BME280;25393;46.108;3.390;2022-10-24T09:20:29;97730.84;;;23.57;46.99
36502;BME280;25393;46.108;3.390;2022-10-24T09:23:03;97767.28;;;24.80;45.90
36502;BME280;25393;46.108;3.390;2022-10-24T09:25:33;97748.97;;;25.22;44.01
36502;BME280;25393;46.108;3.390;2022-10-24T09:28:03;97760.38;;;25.95;41.89
36502;BME280;25393;46.108;3.390;2022-10-24T09:30:32;97763.31;;;26.29;42.64
36502;BME280;25393;46.108;3.390;2022-10-24T09:35:59;97766.16;;;26.83;38.80
36502;BME280;25393;46.108;3.390;2022-10-24T09:38:34;97758.06;;;26.63;37.61
36502;BME280;25393;46.108;3.390;2022-10-24T09:41:16;97766.16;;;26.83;37.10
36502;BME280;25393;46.108;3.390;2022-10-24T09:46:19;97756.25;;;25.07;40.81
36502;BME280;25393;46.108;3.390;2022-10-24T09:48:59;97761.44;;;24.46;40.52
36502;BME280;25393;46.108;3.390;2022-10-24T09:51:37;97770.88;;;24.38;40.65
36502;BME280;25393;46.108;3.390;2022-10-24T10:04:49;97777.47;;;22.88;43.89
36502;BME280;25393;46.108;3.390;2022-10-24T10:07:37;97783.63;;;22.02;44.49
36502;BME280;25393;46.108;3.390;2022-10-24T10:12:54;97775.28;;;22.25;45.69
36502;BME280;25393;46.108;3.390;2022-10-24T10:15:43;97757.84;;;22.33;45.06
36502;BME280;25393;46.108;3.390;2022-10-24T10:18:32;97788.28;;;22.28;45.35
36502;BME280;25393;46.108;3.390;2022-10-24T10:23:46;97801.03;;;23.20;43.26
36502;BME280;25393;46.108;3.390;2022-10-24T10:29:30;97798.06;;;25.41;39.88
36502;BME280;25393;46.108;3.390;2022-10-24T10:34:45;97794.63;;;25.61;37.69
36502;BME280;25393;46.108;3.390;2022-10-24T10:47:50;97796.59;;;26.80;36.65
36502;BME280;25393;46.108;3.390;2022-10-24T11:01:10;97791.53;;;24.08;40.94
36502;BME280;25393;46.108;3.390;2022-10-24T11:04:03;97803.91;;;23.35;41.66
36502;BME280;25393;46.108;3.390;2022-10-24T11:06:51;97792.81;;;22.83;42.59
36502;BME280;25393;46.108;3.390;2022-10-24T11:10:00;97794.91;;;23.03;42.65
36502;BME280;25393;46.108;3.390;2022-10-24T11:12:31;97784.31;;;22.96;41.85
36502;BME280;25393;46.108;3.390;2022-10-24T11:15:07;97791.41;;;23.56;42.31
36502;BME280;25393;46.108;3.390;2022-10-24T11:17:44;97789.03;;;23.37;42.26
36502;BME280;25393;46.108;3.390;2022-10-24T11:23:06;97797.44;;;22.66;42.55
36502;BME280;25393;46.108;3.390;2022-10-24T11:25:41;97787.44;;;22.45;43.55
36502;BME280;25393;46.108;3.390;2022-10-24T11:28:15;97797.94;;;22.24;42.04
36502;BME280;25393;46.108;3.390;2022-10-24T11:30:50;97791.44;;;21.87;43.45
36502;BME280;25393;46.108;3.390;2022-10-24T11:33:23;97801.75;;;21.73;44.83
36502;BME280;25393;46.108;3.390;2022-10-24T11:36:12;97797.66;;;21.71;43.17
36502;BME280;25393;46.108;3.390;2022-10-24T11:38:54;97796.97;;;21.47;43.42
36502;BME280;25393;46.108;3.390;2022-10-24T11:41:33;97800.47;;;21.31;44.84
36502;BME280;25393;46.108;3.390;2022-10-24T11:44:14;97793.59;;;20.95;44.11
36502;BME280;25393;46.108;3.390;2022-10-24T11:46:50;97800.63;;;20.96;45.24
36502;BME280;25393;46.108;3.390;2022-10-24T11:49:30;97788.69;;;20.92;44.59
36502;BME280;25393;46.108;3.390;2022-10-24T11:52:04;97803.84;;;21.10;46.33
36502;BME280;25393;46.108;3.390;2022-10-24T11:54:44;97801.25;;;21.15;46.02
36502;BME280;25393;46.108;3.390;2022-10-24T11:57:23;97808.91;;;21.34;46.39
36502;BME280;25393;46.108;3.390;2022-10-24T11:59:52;97808.69;;;21.53;45.41
36502;BME280;25393;46.108;3.390;2022-10-24T12:02:38;97807.47;;;21.60;46.72
36502;BME280;25393;46.108;3.390;2022-10-24T12:16:34;97794.50;;;22.29;46.83
36502;BME280;25393;46.108;3.390;2022-10-24T12:19:04;97794.41;;;22.02;44.26
36502;BME280;25393;46.108;3.390;2022-10-24T12:21:37;97783.28;;;21.99;43.95
36502;BME280;25393;46.108;3.390;2022-10-24T12:24:18;97780.25;;;22.12;45.74
36502;BME280;25393;46.108;3.390;2022-10-24T12:26:54;97786.25;;;23.01;46.97
36502;BME280;25393;46.108;3.390;2022-10-24T12:29:26;97766.16;;;22.70;43.74
36502;BME280;25393;46.108;3.390;2022-10-24T12:31:53;97772.22;;;23.04;43.52
36502;BME280;25393;46.108;3.390;2022-10-24T12:39:49;97753.59;;;25.42;41.01
36502;BME280;25393;46.108;3.390;2022-10-24T12:45:36;97769.31;;;25.35;39.87
36502;BME280;25393;46.108;3.390;2022-10-24T12:47:39;97757.75;;;24.67;41.04
36502;BME280;25393;46.108;3.390;2022-10-24T13:01:43;97767.19;;;25.62;39.47
36502;BME280;25393;46.108;3.390;2022-10-24T13:09:42;97755.72;;;27.05;37.50
36502;BME280;25393;46.108;3.390;2022-10-24T13:20:40;97744.38;;;26.78;38.11
36502;BME280;25393;46.108;3.390;2022-10-24T13:23:23;97752.75;;;26.12;38.05
36502;BME280;25393;46.108;3.390;2022-10-24T13:25:54;97759.00;;;26.13;38.04
36502;BME280;25393;46.108;3.390;2022-10-24T13:30:49;97760.97;;;24.59;40.60
36502;BME280;25393;46.108;3.390;2022-10-24T13:39:03;97754.22;;;23.41;44.17
36502;BME280;25393;46.108;3.390;2022-10-24T13:41:39;97755.91;;;23.20;43.50
36502;BME280;25393;46.108;3.390;2022-10-24T13:44:33;97753.44;;;22.92;44.33
36502;BME280;25393;46.108;3.390;2022-10-24T13:47:06;97761.50;;;22.65;44.06
36502;BME280;25393;46.108;3.390;2022-10-24T13:49:41;97758.72;;;22.38;43.98
36502;BME280;25393;46.108;3.390;2022-10-24T13:52:29;97757.66;;;22.18;46.14
36502;BME280;25393;46.108;3.390;2022-10-24T13:55:12;97742.78;;;21.82;46.72
36502;BME280;25393;46.108;3.390;2022-10-24T13:57:54;97756.88;;;21.67;45.23
36502;BME280;25393;46.108;3.390;2022-10-24T14:00:25;97751.91;;;21.59;45.70
36502;BME280;25393;46.108;3.390;2022-10-24T14:02:55;97759.81;;;21.66;46.18
36502;BME280;25393;46.108;3.390;2022-10-24T14:05:44;97745.19;;;21.45;46.43
36502;BME280;25393;46.108;3.390;2022-10-24T14:10:54;97767.88;;;21.32;46.58
36502;BME280;25393;46.108;3.390;2022-10-24T14:13:24;97764.47;;;21.37;45.64
36502;BME280;25393;46.108;3.390;2022-10-24T14:15:59;97754.34;;;21.44;47.15
36502;BME280;25393;46.108;3.390;2022-10-24T14:18:27;97744.81;;;21.53;46.11
36502;BME280;25393;46.108;3.390;2022-10-24T14:20:58;97738.56;;;22.46;44.75
36502;BME280;25393;46.108;3.390;2022-10-24T14:23:34;97748.47;;;23.37;43.06
36502;BME280;25393;46.108;3.390;2022-10-24T14:26:04;97757.81;;;23.83;42.28
36502;BME280;25393;46.108;3.390;2022-10-24T14:28:42;97743.31;;;24.05;41.42
36502;BME280;25393;46.108;3.390;2022-10-24T14:31:32;97753.03;;;24.01;42.11
36502;BME280;25393;46.108;3.390;2022-10-24T14:34:04;97761.44;;;23.62;41.34
36502;BME280;25393;46.108;3.390;2022-10-24T14:36:34;97755.88;;;23.47;42.09
36502;BME280;25393;46.108;3.390;2022-10-24T14:39:03;97754.97;;;23.68;41.65
36502;BME280;25393;46.108;3.390;2022-10-24T14:41:50;97760.91;;;23.65;40.40
36502;BME280;25393;46.108;3.390;2022-10-24T14:44:18;97768.56;;;23.42;41.24
36502;BME280;25393;46.108;3.390;2022-10-24T14:47:03;97758.91;;;23.24;42.48
36502;BME280;25393;46.108;3.390;2022-10-24T14:49:34;97760.72;;;22.92;41.76
36502;BME280;25393;46.108;3.390;2022-10-24T14:52:10;97768.41;;;22.78;42.95
36502;BME280;25393;46.108;3.390;2022-10-24T14:54:49;97772.56;;;22.85;42.86
36502;BME280;25393;46.108;3.390;2022-10-24T14:57:19;97773.16;;;23.14;43.44
36502;BME280;25393;46.108;3.390;2022-10-24T14:59:50;97777.63;;;23.30;42.38
36502;BME280;25393;46.108;3.390;2022-10-24T15:02:33;97783.38;;;23.12;43.50
36502;BME280;25393;46.108;3.390;2022-10-24T15:07:39;97786.28;;;22.79;44.38
36502;BME280;25393;46.108;3.390;2022-10-24T15:10:35;97792.03;;;22.27;44.85
36502;BME280;25393;46.108;3.390;2022-10-24T15:13:16;97793.75;;;21.95;44.05
36502;BME280;25393;46.108;3.390;2022-10-24T15:15:52;97788.50;;;21.72;45.40
36502;BME280;25393;46.108;3.390;2022-10-24T15:18:28;97804.13;;;21.70;46.46
36502;BME280;25393;46.108;3.390;2022-10-24T15:21:03;97801.88;;;21.50;46.98
36502;BME280;25393;46.108;3.390;2022-10-24T15:23:44;97808.63;;;21.19;46.73
36502;BME280;25393;46.108;3.390;2022-10-24T15:26:33;97807.56;;;21.20;47.54
36502;BME280;25393;46.108;3.390;2022-10-24T15:31:29;97807.66;;;21.25;48.62
36502;BME280;25393;46.108;3.390;2022-10-24T15:34:04;97821.00;;;21.49;47.21
36502;BME280;25393;46.108;3.390;2022-10-24T15:36:35;97828.56;;;21.63;47.09
36502;BME280;25393;46.108;3.390;2022-10-24T15:41:36;97816.03;;;21.57;48.15
36502;BME280;25393;46.108;3.390;2022-10-24T15:44:12;97820.34;;;21.41;49.04
36502;BME280;25393;46.108;3.390;2022-10-24T15:46:39;97835.72;;;21.58;48.46